Time;durP1;ratioP1;P1;durP2;ratioP2;P2;SDS_P1;SDS_P2;PMS_P1;PMS_P2;Temp;Humidity;BMP_temperature;BMP_pressure;BME280_temperature;BME280_humidity;BME280_pressure;Samples;Min_cycle;Max_cycle;Signal;HPM_P1;HPM_P2
2023/09/07 00:00:10;;;;;;;4.50;2.55;;;19.40;99.90;;;;;;5038658;28;20033;-53
2023/09/07 00:02:38;;;;;;;3.30;2.33;;;19.40;99.90;;;;;;5039335;28;20037;-54
2023/09/07 00:05:06;;;;;;;3.95;2.10;;;19.30;99.90;;;;;;5039110;28;20109;-54
2023/09/07 00:07:31;;;;;;;5.55;2.40;;;19.30;99.90;;;;;;5039056;28;20496;-50
2023/09/07 00:09:57;;;;;;;3.92;2.50;;;19.30;99.90;;;;;;5038989;28;20029;-54
2023/09/07 00:12:22;;;;;;;4.07;2.30;;;19.30;99.90;;;;;;5038226;28;20034;-55
2023/09/07 00:14:48;;;;;;;3.40;2.08;;;19.20;99.90;;;;;;5038874;28;20033;-53
2023/09/07 00:17:14;;;;;;;4.15;2.47;;;19.20;99.90;;;;;;5038679;28;20060;-53
2023/09/07 00:19:39;;;;;;;3.42;1.88;;;19.10;99.90;;;;;;5039091;28;20029;-53
2023/09/07 00:22:05;;;;;;;5.30;2.10;;;19.10;99.90;;;;;;5038142;28;20060;-54
2023/09/07 00:24:34;;;;;;;4.03;2.30;;;19.10;99.90;;;;;;5038997;28;20100;-54
2023/09/07 00:26:59;;;;;;;4.85;2.30;;;19.10;99.90;;;;;;5038177;28;20198;-53
2023/09/07 00:29:25;;;;;;;5.68;2.30;;;19.00;99.90;;;;;;5038883;28;20108;-54
2023/09/07 00:31:50;;;;;;;6.25;2.40;;;19.00;99.90;;;;;;5004964;28;20437;-55
2023/09/07 00:34:18;;;;;;;4.28;2.25;;;19.00;99.90;;;;;;5020388;28;20394;-56
2023/09/07 00:36:43;;;;;;;3.70;2.15;;;19.00;99.90;;;;;;5038352;28;20026;-52
2023/09/07 00:39:09;;;;;;;4.03;2.22;;;18.90;99.90;;;;;;5038280;28;20474;-52
2023/09/07 00:41:35;;;;;;;4.95;2.70;;;18.90;99.90;;;;;;5020197;28;20125;-52
2023/09/07 00:44:00;;;;;;;3.88;2.30;;;18.90;99.90;;;;;;5020522;28;20038;-53
2023/09/07 00:46:26;;;;;;;4.22;2.50;;;19.00;99.90;;;;;;5020361;28;20636;-55
2023/09/07 00:48:52;;;;;;;4.65;2.10;;;19.00;99.90;;;;;;5019697;28;20075;-54
2023/09/07 00:51:18;;;;;;;2.92;1.92;;;19.00;99.90;;;;;;5020203;28;20033;-54
2023/09/07 00:53:43;;;;;;;3.88;1.98;;;19.20;99.90;;;;;;5038204;28;20032;-55
2023/09/07 00:56:09;;;;;;;3.55;2.22;;;19.30;99.90;;;;;;5020545;28;20029;-51
2023/09/07 00:58:37;;;;;;;3.22;1.98;;;19.30;99.90;;;;;;5020405;28;20049;-53
2023/09/07 01:01:03;;;;;;;6.72;2.67;;;19.40;99.90;;;;;;5003269;28;20030;-55
2023/09/07 01:03:28;;;;;;;4.22;2.45;;;19.40;99.90;;;;;;5037297;28;20037;-53
2023/09/07 01:06:12;;;;;;;4.32;2.20;;;19.40;99.90;;;;;;5020062;28;20029;-55
2023/09/07 01:08:47;;;;;;;5.43;2.17;;;19.40;99.90;;;;;;5037505;28;20033;-55
2023/09/07 01:11:22;;;;;;;4.45;2.05;;;19.30;99.90;;;;;;5038419;28;20093;-53
2023/09/07 01:13:51;;;;;;;4.40;2.03;;;19.30;99.90;;;;;;5019954;28;20033;-55
2023/09/07 01:16:20;;;;;;;6.03;2.20;;;19.20;99.90;;;;;;5037697;28;20482;-53
2023/09/07 01:18:46;;;;;;;3.65;1.98;;;19.20;99.90;;;;;;5019903;28;20045;-53
2023/09/07 01:21:13;;;;;;;3.35;2.00;;;19.10;99.90;;;;;;5037481;28;20029;-54
2023/09/07 01:23:41;;;;;;;3.00;1.77;;;19.10;99.90;;;;;;5019558;28;20029;-55
2023/09/07 01:26:08;;;;;;;3.93;2.10;;;19.00;99.90;;;;;;5037675;28;20026;-55
2023/09/07 01:28:35;;;;;;;3.30;2.03;;;19.00;99.90;;;;;;5019804;28;20440;-54
2023/09/07 01:31:04;;;;;;;4.38;2.10;;;19.00;99.90;;;;;;5036783;28;20025;-55
2023/09/07 01:33:30;;;;;;;4.60;2.10;;;18.90;99.90;;;;;;5019490;28;20036;-54
2023/09/07 01:35:56;;;;;;;2.90;1.83;;;18.90;99.90;;;;;;5019423;28;20137;-56
2023/09/07 01:38:23;;;;;;;4.20;1.98;;;18.80;99.90;;;;;;5037393;28;20076;-55
2023/09/07 01:40:48;;;;;;;3.88;1.83;;;18.80;99.90;;;;;;5037227;28;20037;-54
2023/09/07 01:43:14;;;;;;;3.55;2.15;;;18.70;99.90;;;;;;5018509;28;20066;-53
2023/09/07 01:45:39;;;;;;;2.55;1.83;;;18.70;99.90;;;;;;5019486;28;20025;-54
2023/09/07 01:48:14;;;;;;;4.20;1.98;;;18.70;99.90;;;;;;5019341;28;20437;-55
2023/09/07 01:50:39;;;;;;;4.00;2.10;;;18.70;99.90;;;;;;5019418;28;20108;-56
2023/09/07 01:53:05;;;;;;;4.80;2.13;;;18.60;99.90;;;;;;5036226;28;20057;-53
2023/09/07 01:55:32;;;;;;;4.55;2.10;;;18.60;99.90;;;;;;5018790;28;20029;-55
2023/09/07 01:57:59;;;;;;;4.38;2.15;;;18.50;99.90;;;;;;5019454;28;20575;-54
2023/09/07 02:00:25;;;;;;;5.65;2.40;;;18.50;99.90;;;;;;5019014;28;20040;-55
2023/09/07 02:02:50;;;;;;;5.65;2.15;;;18.40;99.90;;;;;;5036157;28;20029;-55
2023/09/07 02:05:16;;;;;;;3.03;2.17;;;18.40;99.90;;;;;;5018752;28;20036;-56
2023/09/07 02:07:43;;;;;;;4.35;2.35;;;18.40;99.90;;;;;;5036541;28;20033;-53
2023/09/07 02:10:09;;;;;;;4.25;2.20;;;18.30;99.90;;;;;;5018419;28;20536;-55
2023/09/07 02:12:34;;;;;;;4.78;2.20;;;18.30;99.90;;;;;;5019182;28;20033;-53
2023/09/07 02:15:02;;;;;;;4.38;2.53;;;18.30;99.90;;;;;;5036863;28;20160;-51
2023/09/07 02:17:28;;;;;;;4.05;2.20;;;18.20;99.90;;;;;;5037106;28;20030;-53
2023/09/07 02:19:54;;;;;;;4.25;2.13;;;18.20;99.90;;;;;;5018595;28;20068;-53
2023/09/07 02:22:20;;;;;;;3.45;2.00;;;18.20;99.90;;;;;;5018843;28;20614;-54
2023/09/07 02:24:45;;;;;;;3.30;2.00;;;18.20;99.90;;;;;;5018982;28;20029;-52
2023/09/07 02:27:11;;;;;;;4.13;2.30;;;18.10;99.90;;;;;;5018910;28;20033;-55
2023/09/07 02:29:36;;;;;;;6.00;2.25;;;18.10;99.90;;;;;;5018613;28;20072;-53
2023/09/07 02:32:04;;;;;;;3.30;2.17;;;18.10;99.90;;;;;;5018414;28;20116;-53
2023/09/07 02:34:30;;;;;;;5.68;2.47;;;18.10;99.90;;;;;;5019273;28;20052;-52
2023/09/07 02:36:56;;;;;;;4.63;2.30;;;18.10;99.90;;;;;;5018942;28;20034;-53
2023/09/07 02:39:26;;;;;;;4.70;2.38;;;18.10;99.90;;;;;;5019012;28;20064;-54
2023/09/07 02:41:52;;;;;;;;;;;18.10;99.90;;;;;;5019169;28;20048;-52
2023/09/07 02:44:17;;;;;;;5.07;2.13;;;18.10;99.90;;;;;;5018336;28;19919;-50
2023/09/07 02:46:43;;;;;;;4.55;2.28;;;18.00;99.90;;;;;;5018479;28;20030;-53
2023/09/07 02:49:09;;;;;;;5.88;2.28;;;18.00;99.90;;;;;;5036832;28;20025;-51
2023/09/07 02:51:35;;;;;;;4.03;2.25;;;18.00;99.90;;;;;;5018376;28;20393;-51
2023/09/07 02:54:03;;;;;;;5.15;2.50;;;18.00;99.90;;;;;;5018380;28;20089;-55
2023/09/07 02:56:30;;;;;;;4.15;2.25;;;17.90;99.90;;;;;;5018718;28;20076;-53
2023/09/07 02:58:56;;;;;;;4.70;2.30;;;17.90;99.90;;;;;;5036494;28;20029;-50
2023/09/07 03:01:22;;;;;;;6.13;2.63;;;17.90;99.90;;;;;;5018037;28;20056;-53
2023/09/07 03:03:49;;;;;;;3.80;2.15;;;17.80;99.90;;;;;;5017982;28;20029;-52
2023/09/07 03:06:19;;;;;;;5.53;2.70;;;17.80;99.90;;;;;;5002502;28;20032;-54
2023/09/07 03:08:48;;;;;;;5.43;2.53;;;17.80;99.90;;;;;;5022513;28;20030;-51
2023/09/07 03:11:14;;;;;;;3.70;2.00;;;17.70;99.90;;;;;;5040327;28;20029;-52
2023/09/07 03:13:42;;;;;;;3.75;2.08;;;17.70;99.90;;;;;;5021782;28;20490;-50
2023/09/07 03:16:07;;;;;;;3.75;2.17;;;17.60;99.90;;;;;;5022120;28;20056;-51
2023/09/07 03:18:33;;;;;;;5.00;2.38;;;17.60;99.90;;;;;;5022342;28;20440;-52
2023/09/07 03:21:01;;;;;;;4.03;2.53;;;17.50;99.90;;;;;;5021832;28;20038;-54
2023/09/07 03:23:31;;;;;;;4.88;2.30;;;17.50;99.90;;;;;;5021596;28;20060;-53
2023/09/07 03:25:58;;;;;;;4.18;2.70;;;17.40;99.90;;;;;;5039430;28;20082;-55
2023/09/07 03:28:25;;;;;;;6.60;2.92;;;17.40;99.90;;;;;;5039387;28;20132;-53
2023/09/07 03:30:51;;;;;;;4.22;2.55;;;17.30;99.90;;;;;;5021598;28;20036;-54
2023/09/07 03:33:17;;;;;;;5.00;2.60;;;17.30;99.90;;;;;;5038641;28;20551;-55
2023/09/07 03:35:43;;;;;;;4.25;2.38;;;17.30;99.90;;;;;;5039112;28;20033;-55
2023/09/07 03:38:08;;;;;;;4.43;2.45;;;17.20;99.90;;;;;;5020821;28;20037;-55
2023/09/07 03:40:34;;;;;;;4.88;2.38;;;17.20;99.90;;;;;;5039280;28;20070;-53
2023/09/07 03:43:00;;;;;;;4.47;2.50;;;17.20;99.90;;;;;;5038555;28;20299;-51
2023/09/07 03:45:26;;;;;;;4.78;2.67;;;17.10;99.90;;;;;;5021102;28;20029;-55
2023/09/07 03:47:52;;;;;;;3.80;2.42;;;17.10;99.90;;;;;;5021106;28;20060;-54
2023/09/07 03:50:18;;;;;;;7.90;3.40;;;17.10;99.90;;;;;;5020571;28;20083;-54
2023/09/07 03:52:44;;;;;;;6.22;2.35;;;17.00;99.90;;;;;;5021038;28;20033;-56
2023/09/07 03:55:10;;;;;;;5.43;3.05;;;17.00;99.90;;;;;;5038556;28;20025;-55
2023/09/07 03:57:37;;;;;;;5.20;2.97;;;16.90;99.90;;;;;;5039076;28;20156;-55
2023/09/07 04:00:07;;;;;;;4.45;2.47;;;16.90;99.90;;;;;;5020689;28;20170;-54
2023/09/07 04:02:38;;;;;;;5.55;2.75;;;16.90;99.90;;;;;;5038700;28;20096;-56
2023/09/07 04:05:05;;;;;;;4.38;2.45;;;16.80;99.90;;;;;;5021491;28;20040;-54
2023/09/07 04:07:32;;;;;;;4.32;2.60;;;16.80;99.90;;;;;;5020763;28;20025;-54
2023/09/07 04:09:58;;;;;;;5.68;3.00;;;16.80;99.90;;;;;;5021956;28;20029;-56
2023/09/07 04:12:24;;;;;;;4.95;3.15;;;16.80;99.90;;;;;;5038931;28;20032;-54
2023/09/07 04:14:50;;;;;;;8.27;2.80;;;16.70;99.90;;;;;;5021323;28;20037;-56
2023/09/07 04:17:15;;;;;;;6.32;3.10;;;16.70;99.90;;;;;;5021261;28;20048;-55
2023/09/07 04:19:43;;;;;;;4.93;2.83;;;16.70;99.90;;;;;;5023501;28;20394;-55
2023/09/07 04:22:08;;;;;;;5.85;2.63;;;16.60;99.90;;;;;;5041769;28;20172;-52
2023/09/07 04:24:34;;;;;;;5.32;2.50;;;16.60;99.90;;;;;;5023922;28;20509;-53
2023/09/07 04:27:01;;;;;;;5.60;2.55;;;16.60;99.90;;;;;;5023981;28;20025;-53
2023/09/07 04:29:27;;;;;;;6.50;3.08;;;16.50;99.90;;;;;;5024419;28;20029;-52
2023/09/07 04:31:53;;;;;;;5.38;3.10;;;16.50;99.90;;;;;;5041386;28;20305;-52
2023/09/07 04:34:21;;;;;;;5.60;2.40;;;16.50;99.90;;;;;;5021130;28;20040;-55
2023/09/07 04:36:46;;;;;;;5.10;2.58;;;16.50;99.90;;;;;;5020486;28;20051;-56
2023/09/07 04:39:14;;;;;;;5.53;2.90;;;16.50;99.90;;;;;;5020220;28;20132;-55
2023/09/07 04:41:40;;;;;;;5.60;2.97;;;16.50;99.90;;;;;;5020094;28;20026;-56
2023/09/07 04:44:06;;;;;;;4.30;2.58;;;16.50;99.90;;;;;;5037664;28;20112;-53
2023/09/07 04:46:32;;;;;;;5.88;3.00;;;16.50;99.90;;;;;;5037359;28;20494;-56
2023/09/07 04:48:58;;;;;;;4.13;2.35;;;16.50;99.90;;;;;;5019967;28;20033;-55
2023/09/07 04:51:25;;;;;;;5.90;3.03;;;16.50;99.90;;;;;;5019528;28;20474;-56
2023/09/07 04:53:51;;;;;;;7.00;2.92;;;16.50;99.90;;;;;;5003803;28;20053;-55
2023/09/07 04:56:17;;;;;;;5.38;3.00;;;16.50;99.90;;;;;;5020183;28;20068;-55
2023/09/07 04:58:43;;;;;;;6.10;2.88;;;16.50;99.90;;;;;;5020224;28;20033;-55
2023/09/07 05:01:10;;;;;;;6.78;2.95;;;16.50;99.90;;;;;;5020639;28;20029;-56
2023/09/07 05:03:37;;;;;;;4.75;3.20;;;16.50;99.90;;;;;;5019415;28;20029;-56
2023/09/07 05:06:04;;;;;;;5.78;2.80;;;16.50;99.90;;;;;;5019480;28;20117;-56
2023/09/07 05:08:30;;;;;;;7.05;3.28;;;16.50;99.90;;;;;;5020121;28;20091;-56
2023/09/07 05:10:57;;;;;;;5.68;3.35;;;16.60;99.90;;;;;;5037943;28;20025;-54
2023/09/07 05:13:23;;;;;;;6.10;2.85;;;16.60;99.90;;;;;;5019794;28;20037;-56
2023/09/07 05:15:50;;;;;;;5.40;3.00;;;16.60;99.90;;;;;;5019591;28;20034;-55
2023/09/07 05:18:17;;;;;;;6.80;3.38;;;16.70;99.90;;;;;;5020032;28;20030;-55
2023/09/07 05:20:44;;;;;;;5.68;2.50;;;16.70;99.90;;;;;;5037234;28;20040;-53
2023/09/07 05:23:15;;;;;;;5.20;2.58;;;16.70;99.90;;;;;;5019307;28;20049;-53
2023/09/07 05:25:55;;;;;;;5.43;2.92;;;16.90;99.90;;;;;;5019454;28;20056;-55
2023/09/07 05:28:23;;;;;;;5.13;2.83;;;16.90;99.90;;;;;;5037642;28;20026;-53
2023/09/07 05:30:50;;;;;;;7.00;3.25;;;17.00;99.90;;;;;;5019306;28;20026;-54
2023/09/07 05:33:18;;;;;;;5.40;2.97;;;17.10;99.90;;;;;;5019646;28;20040;-55
2023/09/07 05:35:45;;;;;;;5.75;2.95;;;17.10;99.90;;;;;;5019488;28;20390;-55
2023/09/07 05:38:11;;;;;;;5.80;3.00;;;17.10;99.90;;;;;;5019506;28;20040;-55
2023/09/07 05:40:43;;;;;;;5.07;2.95;;;17.20;99.90;;;;;;5019194;28;20116;-56
2023/09/07 05:43:12;;;;;;;5.47;2.88;;;17.20;99.90;;;;;;5018887;28;20041;-53
2023/09/07 05:45:40;;;;;;;6.40;3.13;;;17.20;99.90;;;;;;5020050;28;20033;-53
2023/09/07 05:48:07;;;;;;;4.93;2.85;;;17.30;99.90;;;;;;5019376;28;20106;-55
2023/09/07 05:50:37;;;;;;;20.27;9.90;;;17.40;99.90;;;;;;5018947;28;20025;-52
2023/09/07 05:53:04;;;;;;;14.55;8.13;;;17.50;99.90;;;;;;5018698;28;20030;-55
2023/09/07 05:55:30;;;;;;;18.15;9.60;;;17.50;99.90;;;;;;5019317;28;20057;-55
2023/09/07 05:57:57;;;;;;;18.63;9.80;;;17.60;99.90;;;;;;5019677;28;20513;-53
2023/09/07 06:00:24;;;;;;;11.80;6.53;;;17.70;99.90;;;;;;5019497;28;20056;-51
2023/09/07 06:02:50;;;;;;;11.52;5.95;;;17.80;99.90;;;;;;5019494;28;20037;-52
2023/09/07 06:05:16;;;;;;;10.13;5.10;;;18.00;99.90;;;;;;5018845;28;20061;-51
2023/09/07 06:07:43;;;;;;;14.95;7.20;;;18.00;99.90;;;;;;5019190;28;20021;-51
2023/09/07 06:10:10;;;;;;;11.70;6.50;;;18.10;99.90;;;;;;5036595;28;20018;-52
2023/09/07 06:12:38;;;;;;;26.70;12.02;;;18.10;99.90;;;;;;5036900;28;20032;-55
2023/09/07 06:15:05;;;;;;;8.43;5.05;;;18.20;99.90;;;;;;5018878;28;20505;-54
2023/09/07 06:17:30;;;;;;;10.02;4.70;;;18.30;99.90;;;;;;5036507;28;20063;-54
2023/09/07 06:19:56;;;;;;;11.20;6.03;;;18.30;99.90;;;;;;5018924;28;20029;-50
2023/09/07 06:22:23;;;;;;;7.43;4.50;;;18.40;99.90;;;;;;5018585;28;20036;-55
2023/09/07 06:24:50;;;;;;;8.77;4.13;;;18.40;99.90;;;;;;5018300;28;20025;-52
2023/09/07 06:27:16;;;;;;;8.60;3.83;;;18.50;99.90;;;;;;5018886;28;20035;-54
2023/09/07 06:29:41;;;;;;;8.73;4.38;;;18.60;99.90;;;;;;5018432;28;20033;-53
2023/09/07 06:32:07;;;;;;;9.40;5.07;;;18.70;99.90;;;;;;5018409;28;20029;-52
2023/09/07 06:34:33;;;;;;;14.00;6.63;;;18.80;99.90;;;;;;5027453;28;20029;-51
2023/09/07 06:36:58;;;;;;;9.48;3.63;;;19.10;99.90;;;;;;5045079;28;20025;-52
2023/09/07 06:39:24;;;;;;;9.23;4.40;;;19.40;99.90;;;;;;5022327;28;20099;-49
2023/09/07 06:41:51;;;;;;;4.10;2.50;;;19.60;99.90;;;;;;5021638;28;20498;-50
2023/09/07 06:44:20;;;;;;;6.18;2.80;;;19.80;99.90;;;;;;5020934;28;20041;-50
2023/09/07 06:46:46;;;;;;;5.40;2.80;;;20.00;99.90;;;;;;5020421;28;20499;-53
2023/09/07 06:49:12;;;;;;;6.75;3.25;;;20.10;99.90;;;;;;5021101;28;20115;-52
2023/09/07 06:51:38;;;;;;;4.32;2.55;;;20.10;99.90;;;;;;5021158;28;20033;-50
2023/09/07 06:54:05;;;;;;;5.85;2.78;;;20.10;99.90;;;;;;5021714;28;20033;-55
2023/09/07 06:56:33;;;;;;;7.75;3.13;;;20.10;99.90;;;;;;5020652;28;20029;-51
2023/09/07 06:58:59;;;;;;;5.15;3.00;;;20.10;99.90;;;;;;5020832;28;20038;-49
2023/09/07 07:01:24;;;;;;;6.00;2.83;;;20.20;99.90;;;;;;5020368;28;20061;-50
2023/09/07 07:03:50;;;;;;;6.95;2.67;;;20.20;99.90;;;;;;5019992;28;20108;-53
2023/09/07 07:06:16;;;;;;;5.30;2.95;;;20.30;99.90;;;;;;5020423;28;20467;-51
2023/09/07 07:08:42;;;;;;;3.70;2.25;;;20.40;99.90;;;;;;5020495;28;20038;-51
2023/09/07 07:11:08;;;;;;;6.78;2.83;;;20.50;99.90;;;;;;5019967;28;20021;-49
2023/09/07 07:13:34;;;;;;;4.55;2.72;;;20.60;99.90;;;;;;5019962;28;20128;-52
2023/09/07 07:16:00;;;;;;;4.10;2.42;;;20.70;99.90;;;;;;5019590;28;20083;-51
2023/09/07 07:18:26;;;;;;;5.45;2.40;;;20.80;99.90;;;;;;5037403;28;20033;-51
2023/09/07 07:20:55;;;;;;;4.60;2.63;;;20.90;99.90;;;;;;5019278;28;20502;-52
2023/09/07 07:23:20;;;;;;;8.07;4.88;;;21.00;99.90;;;;;;5019445;28;20052;-51
2023/09/07 07:25:46;;;;;;;8.02;3.97;;;21.00;99.90;;;;;;5037313;28;20478;-52
2023/09/07 07:28:12;;;;;;;8.98;3.40;;;21.10;99.90;;;;;;5019124;28;20083;-49
2023/09/07 07:30:42;;;;;;;4.22;2.97;;;21.20;99.90;;;;;;5037102;28;20025;-51
2023/09/07 07:33:09;;;;;;;5.68;3.20;;;21.40;99.90;;;;;;5019771;28;20037;-54
2023/09/07 07:35:36;;;;;;;6.03;2.80;;;21.50;99.90;;;;;;5037377;28;20111;-53
2023/09/07 07:38:07;;;;;;;6.90;4.07;;;21.70;99.90;;;;;;5019560;28;20033;-53
2023/09/07 07:40:34;;;;;;;7.15;2.83;;;21.90;99.90;;;;;;5019175;28;20060;-52
2023/09/07 07:43:00;;;;;;;3.53;2.08;;;22.20;99.90;;;;;;5002731;28;20041;-51
2023/09/07 07:45:26;;;;;;;4.10;2.30;;;22.50;99.90;;;;;;5018802;28;20113;-50
2023/09/07 07:47:53;;;;;;;4.65;2.40;;;22.70;99.90;;;;;;5019478;28;20026;-51
2023/09/07 07:50:19;;;;;;;6.07;2.92;;;22.80;99.90;;;;;;5019032;28;20032;-51
2023/09/07 07:52:46;;;;;;;4.25;2.33;;;23.10;99.90;;;;;;5019874;28;20124;-52
2023/09/07 07:55:12;;;;;;;4.28;2.40;;;23.10;99.90;;;;;;5040417;28;20049;-51
2023/09/07 07:57:39;;;;;;;6.45;2.67;;;23.20;99.90;;;;;;5023095;28;20029;-52
2023/09/07 08:00:06;;;;;;;7.55;2.50;;;23.30;99.90;;;;;;5022436;28;20041;-52
2023/09/07 08:02:39;;;;;;;4.90;2.45;;;23.60;99.90;;;;;;5039946;28;20033;-55
2023/09/07 08:05:07;;;;;;;4.90;2.53;;;23.80;99.90;;;;;;5022523;28;20025;-50
2023/09/07 08:07:33;;;;;;;3.30;2.22;;;23.90;99.90;;;;;;5021885;28;20032;-54
2023/09/07 08:09:59;;;;;;;5.60;2.38;;;24.00;99.90;;;;;;5021572;28;20085;-54
2023/09/07 08:12:26;;;;;;;3.65;2.30;;;24.20;99.90;;;;;;5022048;28;20505;-52
2023/09/07 08:14:52;;;;;;;7.18;2.65;;;24.20;99.90;;;;;;5021578;28;20057;-52
2023/09/07 08:17:20;;;;;;;4.97;2.25;;;24.20;99.90;;;;;;5021912;28;20045;-54
2023/09/07 08:19:48;;;;;;;8.43;4.80;;;24.30;99.90;;;;;;5022104;28;20087;-53
2023/09/07 08:22:16;;;;;;;3.30;2.08;;;24.40;99.90;;;;;;5021073;28;20124;-51
2023/09/07 08:24:44;;;;;;;4.70;3.00;;;24.50;99.90;;;;;;5021243;28;20037;-53
2023/09/07 08:27:11;;;;;;;4.22;2.35;;;24.60;99.90;;;;;;5021559;28;20391;-55
2023/09/07 08:29:37;;;;;;;8.48;3.92;;;24.70;99.90;;;;;;5021264;28;20064;-53
2023/09/07 08:32:04;;;;;;;3.88;2.53;;;24.70;99.90;;;;;;5038724;28;20022;-55
2023/09/07 08:34:30;;;;;;;3.95;2.40;;;24.90;99.90;;;;;;5038617;28;20033;-54
2023/09/07 08:36:58;;;;;;;5.25;2.75;;;25.00;99.90;;;;;;5038729;28;20037;-56
2023/09/07 08:39:24;;;;;;;5.32;3.40;;;25.20;99.90;;;;;;5038759;28;20136;-54
2023/09/07 08:41:51;;;;;;;4.55;2.63;;;25.40;99.90;;;;;;5038226;28;20478;-55
2023/09/07 08:44:19;;;;;;;8.15;4.03;;;25.50;99.90;;;;;;5037893;28;20509;-55
2023/09/07 08:46:45;;;;;;;4.28;2.80;;;25.40;99.90;;;;;;5037994;28;20076;-53
2023/09/07 08:49:11;;;;;;;3.72;2.20;;;25.50;99.90;;;;;;5038070;28;20521;-55
2023/09/07 08:51:37;;;;;;;3.58;2.17;;;25.50;99.90;;;;;;5020050;28;20095;-56
2023/09/07 08:54:04;;;;;;;4.20;3.15;;;25.70;99.90;;;;;;5020688;28;20044;-55
2023/09/07 08:56:29;;;;;;;7.22;4.60;;;25.90;99.90;;;;;;5020719;28;20467;-53
2023/09/07 08:58:55;;;;;;;4.70;2.63;;;25.90;99.90;;;;;;5039349;28;20061;-54
2023/09/07 09:01:21;;;;;;;3.50;2.45;;;26.00;99.90;;;;;;5037709;28;20029;-56
2023/09/07 09:03:49;;;;;;;4.18;2.13;;;26.10;99.90;;;;;;5036960;28;20083;-53
2023/09/07 09:06:16;;;;;;;6.35;2.95;;;26.20;99.80;;;;;;5037365;28;20033;-54
2023/09/07 09:08:48;;;;;;;4.97;2.95;;;26.20;99.90;;;;;;5036681;28;20032;-56
2023/09/07 09:11:15;;;;;;;13.25;7.30;;;26.40;99.90;;;;;;5019587;28;20053;-52
2023/09/07 09:13:42;;;;;;;4.53;2.88;;;26.40;99.90;;;;;;5037088;28;20025;-51
2023/09/07 09:16:08;;;;;;;5.43;3.25;;;26.60;99.30;;;;;;5019488;28;20036;-52
2023/09/07 09:18:33;;;;;;;9.07;3.35;;;26.80;99.40;;;;;;5037475;28;20029;-50
2023/09/07 09:20:59;;;;;;;7.18;3.00;;;26.90;99.10;;;;;;5036771;28;20036;-50
2023/09/07 09:23:36;;;;;;;4.05;2.80;;;27.20;98.00;;;;;;5036682;28;20022;-54
2023/09/07 09:26:03;;;;;;;5.35;3.20;;;27.30;98.00;;;;;;5037139;28;20112;-53
2023/09/07 09:28:34;;;;;;;6.03;3.70;;;27.30;97.90;;;;;;5036068;28;20033;-53
2023/09/07 09:31:01;;;;;;;4.82;2.60;;;27.30;97.90;;;;;;5036373;28;20079;-50
2023/09/07 09:33:28;;;;;;;5.88;3.13;;;27.30;97.70;;;;;;5018148;28;20071;-54
2023/09/07 09:35:54;;;;;;;3.90;2.47;;;27.40;98.30;;;;;;5018174;28;20033;-50
2023/09/07 09:38:20;;;;;;;5.07;2.35;;;27.50;97.00;;;;;;5035125;28;20045;-54
2023/09/07 09:40:46;;;;;;;3.00;2.20;;;27.50;97.10;;;;;;5034778;28;20098;-53
2023/09/07 09:43:13;;;;;;;4.30;2.22;;;27.50;96.20;;;;;;5034180;28;20029;-53
2023/09/07 09:45:39;;;;;;;3.05;2.30;;;27.50;96.90;;;;;;5035173;28;20391;-54
2023/09/07 09:48:06;;;;;;;6.18;2.78;;;27.50;96.00;;;;;;5035079;28;20382;-55
2023/09/07 09:50:37;;;;;;;3.70;2.38;;;27.60;97.10;;;;;;5034034;28;20029;-55
2023/09/07 09:53:09;;;;;;;7.28;3.55;;;27.60;96.70;;;;;;5036923;28;20109;-56
2023/09/07 09:55:35;;;;;;;4.53;2.45;;;27.70;98.10;;;;;;5033034;28;20489;-55
2023/09/07 09:58:01;;;;;;;3.35;2.20;;;27.90;96.10;;;;;;5037228;28;20083;-54
2023/09/07 10:00:28;;;;;;;3.58;2.38;;;28.10;95.10;;;;;;5036248;28;20037;-54
2023/09/07 10:03:33;;;;;;;5.38;3.08;;;28.10;95.00;;;;;;5036512;28;20340;-52
2023/09/07 10:06:13;;;;;;;4.35;2.50;;;28.20;95.60;;;;;;4994943;28;20039;-51
2023/09/07 10:08:39;;;;;;;4.15;2.83;;;28.40;96.00;;;;;;4994941;28;20121;-54
2023/09/07 10:11:09;;;;;;;4.93;3.13;;;28.60;95.10;;;;;;5019233;28;20123;-56
2023/09/07 10:13:35;;;;;;;5.00;2.80;;;28.80;95.20;;;;;;5036480;28;20179;-55
2023/09/07 10:16:07;;;;;;;5.38;2.95;;;29.10;95.50;;;;;;5036407;28;20037;-51
2023/09/07 10:18:37;;;;;;;7.93;2.65;;;29.30;94.30;;;;;;5037556;28;20053;-55
2023/09/07 10:21:04;;;;;;;5.70;2.47;;;29.60;92.40;;;;;;5036597;28;20069;-55
2023/09/07 10:23:40;;;;;;;3.17;2.40;;;29.90;92.70;;;;;;5035891;28;20056;-50
2023/09/07 10:26:15;;;;;;;3.97;2.75;;;29.90;91.50;;;;;;5036405;28;20398;-51
2023/09/07 10:28:41;;;;;;;3.47;2.40;;;29.90;91.40;;;;;;5036763;28;20032;-55
2023/09/07 10:31:19;;;;;;;4.90;3.13;;;29.80;92.00;;;;;;5036311;28;20057;-51
2023/09/07 10:33:46;;;;;;;5.70;2.90;;;29.80;92.00;;;;;;5036562;28;20120;-53
2023/09/07 10:36:23;;;;;;;4.25;2.35;;;30.20;91.80;;;;;;5036885;28;20029;-53
2023/09/07 10:38:49;;;;;;;4.10;2.38;;;30.50;91.00;;;;;;5036347;28;20026;-53
2023/09/07 10:41:14;;;;;;;4.45;2.42;;;30.70;91.20;;;;;;5036063;28;20104;-52
2023/09/07 10:43:48;;;;;;;4.43;2.20;;;30.90;90.40;;;;;;5035846;28;20542;-55
2023/09/07 10:46:14;;;;;;;3.65;2.47;;;31.00;90.30;;;;;;5036100;28;20022;-53
2023/09/07 10:48:40;;;;;;;4.25;2.80;;;31.00;88.20;;;;;;5036057;28;20371;-55
2023/09/07 10:51:06;;;;;;;7.65;4.47;;;30.80;90.30;;;;;;5036527;28;20085;-53
2023/09/07 10:53:32;;;;;;;4.10;2.65;;;30.90;90.10;;;;;;5035457;28;20049;-51
2023/09/07 10:56:01;;;;;;;4.57;2.45;;;30.90;90.00;;;;;;5035743;28;20033;-53
2023/09/07 10:58:32;;;;;;;4.50;2.60;;;30.70;88.20;;;;;;5035278;28;20056;-54
2023/09/07 11:00:58;;;;;;;5.35;3.72;;;30.60;89.10;;;;;;5035712;28;20040;-53
2023/09/07 11:03:28;;;;;;;3.85;2.58;;;30.70;87.40;;;;;;5035887;28;20482;-53
2023/09/07 11:06:03;;;;;;;3.65;2.88;;;30.80;87.90;;;;;;5036315;28;20026;-53
2023/09/07 11:08:29;;;;;;;3.92;2.60;;;30.80;87.10;;;;;;5035639;28;20025;-53
2023/09/07 11:10:55;;;;;;;3.88;2.67;;;30.70;88.90;;;;;;5018008;28;20049;-53
2023/09/07 11:13:23;;;;;;;5.38;2.33;;;30.60;88.80;;;;;;5035491;28;20029;-49
2023/09/07 11:15:49;;;;;;;2.67;1.95;;;30.60;88.50;;;;;;5018159;28;20037;-54
2023/09/07 11:18:21;;;;;;;5.43;2.70;;;30.50;88.80;;;;;;5035874;28;20032;-54
2023/09/07 11:20:47;;;;;;;3.75;2.60;;;30.50;88.50;;;;;;5035412;28;20037;-53
2023/09/07 11:23:13;;;;;;;3.47;2.30;;;30.50;88.90;;;;;;5018367;28;20034;-53
2023/09/07 11:25:39;;;;;;;5.53;3.38;;;30.40;87.80;;;;;;5036107;28;20029;-51
2023/09/07 11:28:06;;;;;;;7.22;3.10;;;30.40;88.20;;;;;;5037611;28;20026;-54
2023/09/07 11:30:32;;;;;;;4.35;2.78;;;30.40;89.60;;;;;;5039858;28;20081;-54
2023/09/07 11:33:03;;;;;;;21.60;4.70;;;30.60;87.10;;;;;;5039752;28;20037;-52
2023/09/07 11:35:29;;;;;;;4.40;2.30;;;30.70;86.00;;;;;;5038694;28;20029;-55
2023/09/07 11:37:55;;;;;;;4.68;2.92;;;30.60;87.10;;;;;;5039696;28;20039;-54
2023/09/07 11:40:21;;;;;;;7.82;3.92;;;30.50;86.00;;;;;;5040056;28;20029;-52
2023/09/07 11:42:46;;;;;;;14.73;5.38;;;30.60;86.00;;;;;;5039460;28;20088;-53
2023/09/07 11:45:13;;;;;;;3.63;2.25;;;30.60;88.10;;;;;;5040052;28;20028;-52
2023/09/07 11:47:39;;;;;;;4.85;2.65;;;30.60;85.90;;;;;;5039322;28;20079;-54
2023/09/07 11:50:06;;;;;;;4.70;2.72;;;30.70;84.30;;;;;;5039460;28;20029;-53
2023/09/07 11:52:32;;;;;;;5.40;3.00;;;30.70;83.80;;;;;;5039751;28;20027;-54
2023/09/07 11:54:58;;;;;;;5.82;2.75;;;30.70;83.50;;;;;;5039355;28;20078;-52
2023/09/07 11:57:23;;;;;;;9.35;5.65;;;30.70;83.90;;;;;;5039006;28;20038;-53
2023/09/07 11:59:49;;;;;;;5.22;2.20;;;30.70;87.50;;;;;;5038912;28;20026;-55
2023/09/07 12:02:16;;;;;;;5.40;2.38;;;30.60;85.70;;;;;;5039470;28;20045;-53
2023/09/07 12:04:41;;;;;;;3.85;2.40;;;30.60;82.30;;;;;;5038952;28;20033;-53
2023/09/07 12:07:07;;;;;;;7.07;4.47;;;30.70;82.80;;;;;;5039463;28;20083;-55
2023/09/07 12:09:33;;;;;;;4.25;2.47;;;30.70;84.30;;;;;;5039067;28;20025;-51
2023/09/07 12:11:58;;;;;;;5.80;2.80;;;30.60;84.00;;;;;;5021381;28;20037;-51
2023/09/07 12:14:24;;;;;;;3.67;2.28;;;30.70;84.20;;;;;;5039095;28;20025;-53
2023/09/07 12:16:49;;;;;;;3.78;2.30;;;30.70;84.50;;;;;;5021329;28;20494;-51
2023/09/07 12:19:15;;;;;;;5.97;2.67;;;30.80;84.00;;;;;;5038893;28;20033;-53
2023/09/07 12:21:41;;;;;;;3.75;2.33;;;30.70;84.70;;;;;;5021063;28;20401;-50
2023/09/07 12:24:08;;;;;;;3.60;2.22;;;30.60;84.20;;;;;;5020972;28;20065;-54
2023/09/07 12:26:33;;;;;;;3.83;2.22;;;30.60;83.20;;;;;;5038586;28;20025;-55
2023/09/07 12:28:59;;;;;;;4.75;2.55;;;30.50;83.00;;;;;;5039272;28;20034;-53
2023/09/07 12:31:25;;;;;;;6.18;3.42;;;30.60;84.20;;;;;;5038370;28;20228;-55
2023/09/07 12:33:51;;;;;;;3.22;2.30;;;30.80;83.10;;;;;;5038231;28;20091;-51
2023/09/07 12:36:17;;;;;;;3.97;2.03;;;30.80;81.90;;;;;;5038440;28;20386;-54
2023/09/07 12:38:43;;;;;;;3.88;2.50;;;30.80;81.40;;;;;;5038572;28;20056;-55
2023/09/07 12:41:08;;;;;;;9.32;4.13;;;30.80;81.10;;;;;;5020830;28;20482;-55
2023/09/07 12:43:34;;;;;;;3.67;2.83;;;30.60;83.40;;;;;;5037899;28;20040;-55